createdAt,value
2023-04-18T00:00:51.002Z,52.04
2023-04-18T00:04:51.031Z,52.57
2023-04-18T00:08:50.975Z,52.55
2023-04-18T00:12:50.802Z,52.33
2023-04-18T00:16:51.054Z,52.31
2023-04-18T00:20:50.989Z,52.32
2023-04-18T00:24:51.162Z,52.21
2023-04-18T00:28:51.280Z,52.16
2023-04-18T00:32:51.235Z,52.22
2023-04-18T00:36:51.351Z,52.15
2023-04-18T00:40:51.408Z,52.11
2023-04-18T00:44:51.383Z,52.25
2023-04-18T00:48:51.565Z,52.42
2023-04-18T00:52:51.638Z,52.28
2023-04-18T00:56:51.543Z,52.81
2023-04-18T01:00:51.566Z,52.83
2023-04-18T01:04:51.701Z,52.92
2023-04-18T01:08:51.875Z,52.75
2023-04-18T01:12:51.937Z,52.48
2023-04-18T01:16:52.026Z,53.02
2023-04-18T01:20:52.121Z,52.56
2023-04-18T01:24:52.254Z,52.43
2023-04-18T01:28:52.407Z,52.38
2023-04-18T01:32:52.435Z,51.76
2023-04-18T01:36:52.572Z,51.75
2023-04-18T01:40:52.790Z,51.80
2023-04-18T01:44:52.855Z,51.54
2023-04-18T01:48:52.958Z,51.57
2023-04-18T01:52:53.177Z,52.00
2023-04-18T01:56:53.150Z,51.78
2023-04-18T02:00:53.440Z,51.79
2023-04-18T02:04:53.565Z,51.65
2023-04-18T02:08:53.555Z,51.08
2023-04-18T02:12:53.729Z,50.81
2023-04-18T02:16:53.790Z,50.81
2023-04-18T02:20:53.904Z,50.99
2023-04-18T02:24:54.040Z,50.80
2023-04-18T02:28:54.118Z,50.55
2023-04-18T02:32:54.395Z,50.80
2023-04-18T02:36:54.358Z,50.62
2023-04-18T02:40:54.552Z,50.76
2023-04-18T02:44:54.582Z,50.50
2023-04-18T02:48:54.720Z,50.50
2023-04-18T02:52:54.839Z,50.51
2023-04-18T02:56:54.991Z,50.36
2023-04-18T03:00:55.233Z,50.49
2023-04-18T03:04:55.339Z,50.60
2023-04-18T03:08:55.439Z,50.55
2023-04-18T03:12:55.502Z,50.28
2023-04-18T03:16:55.873Z,50.43
2023-04-18T03:20:55.871Z,50.39
2023-04-18T03:24:56.140Z,50.01
2023-04-18T03:28:56.291Z,50.01
2023-04-18T03:32:56.379Z,50.02
2023-04-18T03:36:56.387Z,50.13
2023-04-18T03:40:56.578Z,50.30
2023-04-18T03:44:56.793Z,50.07
2023-04-18T03:48:56.985Z,50.37
2023-04-18T03:52:57.075Z,51.00
2023-04-18T03:56:57.253Z,51.01
2023-04-18T04:00:57.372Z,51.66
2023-04-18T04:04:57.668Z,50.80
2023-04-18T04:08:57.779Z,51.19
2023-04-18T04:12:57.848Z,51.51
2023-04-18T04:16:57.817Z,50.93
2023-04-18T04:20:57.782Z,51.10
2023-04-18T04:24:57.975Z,50.87
2023-04-18T04:28:57.917Z,50.57
2023-04-18T04:32:57.766Z,50.81
2023-04-18T04:36:57.731Z,51.23
2023-04-18T04:40:57.640Z,50.96
2023-04-18T04:44:57.722Z,50.96
2023-04-18T04:48:57.726Z,50.90
2023-04-18T04:52:57.513Z,51.15
2023-04-18T04:56:57.609Z,51.44
2023-04-18T05:00:57.640Z,51.54
2023-04-18T05:04:57.700Z,51.17
2023-04-18T05:08:57.681Z,50.90
2023-04-18T05:12:57.423Z,50.98
2023-04-18T05:16:57.447Z,50.65
2023-04-18T05:20:57.371Z,51.17
2023-04-18T05:24:57.361Z,51.17
2023-04-18T05:28:57.296Z,50.77
2023-04-18T05:32:57.292Z,50.57
2023-04-18T05:36:57.228Z,50.74
2023-04-18T05:40:57.238Z,50.54
2023-04-18T05:44:57.198Z,51.38
2023-04-18T05:48:57.437Z,51.65
2023-04-18T05:52:57.517Z,51.05
2023-04-18T05:56:57.666Z,51.65
2023-04-18T06:00:57.873Z,50.77
2023-04-18T06:04:58.038Z,50.43
2023-04-18T06:08:58.076Z,50.54
2023-04-18T06:12:58.224Z,51.05
2023-04-18T06:16:58.268Z,51.14
2023-04-18T06:20:58.526Z,51.15
2023-04-18T06:24:58.616Z,51.29
2023-04-18T06:28:58.626Z,51.09
2023-04-18T06:32:58.817Z,51.36
2023-04-18T06:36:58.796Z,51.39
2023-04-18T06:40:59.036Z,51.52
2023-04-18T06:44:59.011Z,51.89
2023-04-18T06:48:59.120Z,51.43
2023-04-18T06:52:59.291Z,51.37
2023-04-18T06:56:59.366Z,51.65
2023-04-18T07:00:59.358Z,51.87
2023-04-18T07:04:59.637Z,52.04
2023-04-18T07:08:59.425Z,52.57
2023-04-18T07:12:59.680Z,52.39
2023-04-18T07:16:59.892Z,53.39
2023-04-18T07:20:59.971Z,52.56
2023-04-18T07:25:00.148Z,52.18
2023-04-18T07:29:00.066Z,52.51
2023-04-18T07:33:00.050Z,52.64
2023-04-18T07:36:59.975Z,52.94
2023-04-18T07:40:59.956Z,53.10
2023-04-18T07:44:59.955Z,53.16
2023-04-18T07:48:59.892Z,53.32
2023-04-18T07:52:59.827Z,53.40
2023-04-18T07:56:59.815Z,52.55
2023-04-18T08:00:59.760Z,52.42
2023-04-18T08:04:59.814Z,52.17
2023-04-18T08:08:59.781Z,52.48
2023-04-18T08:12:59.656Z,52.11
2023-04-18T08:16:59.655Z,51.49
2023-04-18T08:20:59.661Z,51.98
2023-04-18T08:25:05.125Z,50.85
2023-04-18T08:29:00.619Z,50.10
2023-04-18T08:32:59.727Z,50.39
2023-04-18T08:36:59.850Z,50.12
2023-04-18T08:41:00.008Z,50.85
2023-04-18T08:45:00.296Z,49.66
2023-04-18T08:49:00.357Z,49.66
2023-04-18T08:53:00.404Z,49.55
2023-04-18T08:57:00.622Z,49.42
2023-04-18T09:01:00.708Z,49.26
2023-04-18T09:05:00.638Z,49.20
2023-04-18T09:09:00.558Z,49.58
2023-04-18T09:13:00.627Z,49.97
2023-04-18T09:17:00.635Z,49.39
2023-04-18T09:21:00.509Z,49.22
2023-04-18T09:25:00.427Z,49.31
2023-04-18T09:29:00.369Z,49.55
2023-04-18T09:33:00.439Z,49.14
2023-04-18T09:37:00.371Z,48.26
2023-04-18T09:41:00.282Z,47.53
2023-04-18T09:45:00.301Z,46.69
2023-04-18T09:49:00.226Z,47.28
2023-04-18T09:53:00.271Z,47.12
2023-04-18T09:57:00.180Z,47.69
2023-04-18T10:01:00.296Z,47.66
2023-04-18T10:05:00.283Z,47.41
2023-04-18T10:09:00.129Z,47.96
2023-04-18T10:13:00.056Z,47.94
2023-04-18T10:17:00.147Z,48.60
2023-04-18T10:21:00.235Z,48.73
2023-04-18T10:25:00.293Z,47.59
2023-04-18T10:29:00.372Z,47.43
2023-04-18T10:33:00.470Z,46.16
2023-04-18T10:37:00.547Z,44.68
2023-04-18T10:41:00.626Z,44.52
2023-04-18T10:45:00.544Z,45.16
2023-04-18T10:49:00.575Z,45.30
2023-04-18T10:53:00.506Z,44.77
2023-04-18T10:57:00.760Z,44.87
2023-04-18T11:01:00.873Z,44.22
2023-04-18T11:05:00.684Z,44.69
2023-04-18T11:09:00.654Z,43.82
2023-04-18T11:13:00.664Z,42.66
2023-04-18T11:17:00.648Z,42.74
2023-04-18T11:21:00.575Z,41.86
2023-04-18T11:25:00.460Z,42.48
2023-04-18T11:29:00.426Z,42.59
2023-04-18T11:33:00.512Z,42.40
2023-04-18T11:37:00.333Z,41.82
2023-04-18T11:41:00.332Z,41.50
2023-04-18T11:45:00.039Z,39.79
2023-04-18T11:49:00.127Z,38.67
2023-04-18T11:52:59.948Z,39.49
2023-04-18T11:56:59.909Z,39.10
2023-04-18T12:00:59.972Z,40.01
2023-04-18T12:05:00.322Z,38.27
2023-04-18T12:09:00.143Z,39.05
2023-04-18T12:13:00.197Z,38.85
2023-04-18T12:17:00.192Z,38.45
2023-04-18T12:21:00.168Z,39.02
2023-04-18T12:25:00.212Z,38.08
2023-04-18T12:29:00.340Z,37.94
2023-04-18T12:33:00.438Z,39.05
2023-04-18T12:37:00.581Z,39.11
2023-04-18T12:41:00.734Z,38.83
2023-04-18T12:45:00.862Z,39.55
2023-04-18T12:49:00.968Z,39.48
2023-04-18T12:53:01.048Z,40.04
2023-04-18T12:57:01.128Z,39.21
2023-04-18T13:01:11.355Z,38.73
2023-04-18T13:05:01.126Z,38.43
2023-04-18T13:09:01.089Z,38.23
2023-04-18T13:13:01.037Z,38.69
2023-04-18T13:17:01.022Z,37.48
2023-04-18T13:21:00.973Z,38.06
2023-04-18T13:25:00.997Z,38.15
2023-04-18T13:29:00.943Z,38.17
2023-04-18T13:33:00.872Z,39.88
2023-04-18T13:37:00.816Z,39.61
2023-04-18T13:41:11.589Z,39.82
2023-04-18T13:45:02.019Z,40.20
2023-04-18T13:49:00.802Z,39.96
2023-04-18T13:53:00.736Z,38.94
2023-04-18T13:57:00.825Z,38.11
2023-04-18T14:01:01.046Z,38.55
2023-04-18T14:05:01.344Z,38.42
2023-04-18T14:10:01.893Z,38.59
2023-04-18T14:11:01.466Z,38.51
2023-04-18T14:12:01.510Z,38.26
2023-04-18T14:13:01.473Z,38.73
2023-04-18T14:14:01.470Z,38.90
2023-04-18T14:15:01.499Z,38.55
2023-04-18T14:16:01.498Z,38.40
2023-04-18T14:17:01.436Z,38.58
2023-04-18T14:18:01.537Z,39.03
2023-04-18T14:19:01.510Z,38.85
2023-04-18T14:20:01.488Z,39.28
2023-04-18T14:21:01.503Z,38.72
2023-04-18T14:22:01.537Z,38.84
2023-04-18T14:23:01.676Z,38.96
2023-04-18T14:24:01.660Z,39.31
2023-04-18T14:25:01.712Z,38.87
2023-04-18T14:26:01.778Z,38.96
2023-04-18T14:27:01.816Z,39.09
2023-04-18T14:28:01.867Z,39.30
2023-04-18T14:29:01.846Z,39.17
2023-04-18T14:30:01.855Z,39.52
2023-04-18T14:31:01.920Z,39.64
2023-04-18T14:32:01.885Z,39.67
2023-04-18T14:33:01.934Z,39.76
2023-04-18T14:34:01.874Z,39.95
2023-04-18T14:35:01.884Z,40.19
2023-04-18T14:36:01.889Z,39.88
2023-04-18T14:37:01.898Z,40.18
2023-04-18T14:38:01.980Z,40.11
2023-04-18T14:39:01.976Z,39.89
2023-04-18T14:40:01.949Z,39.57
2023-04-18T14:41:01.956Z,39.85
2023-04-18T14:42:02.092Z,40.03
2023-04-18T14:43:02.060Z,40.39
2023-04-18T14:44:02.073Z,40.14
2023-04-18T14:45:02.114Z,40.31
2023-04-18T14:46:02.119Z,40.49
2023-04-18T14:47:02.300Z,40.33
2023-04-18T14:48:02.231Z,40.89
2023-04-18T14:49:02.335Z,40.87
2023-04-18T14:50:02.338Z,40.77
2023-04-18T14:51:02.349Z,40.50
2023-04-18T14:52:02.375Z,40.32
2023-04-18T14:53:02.398Z,40.19
2023-04-18T14:54:02.390Z,40.29
2023-04-18T14:55:02.433Z,40.15
2023-04-18T14:56:02.432Z,40.05
2023-04-18T14:57:02.436Z,40.11
2023-04-18T14:58:02.453Z,40.10
2023-04-18T14:59:02.718Z,40.05
2023-04-18T15:00:02.449Z,39.94
2023-04-18T15:01:02.516Z,39.68
2023-04-18T15:02:02.560Z,39.68
2023-04-18T15:03:02.521Z,39.65
2023-04-18T15:04:02.680Z,39.69
2023-04-18T15:05:02.632Z,39.58
2023-04-18T15:06:02.503Z,39.34
2023-04-18T15:07:02.526Z,39.76
2023-04-18T15:08:02.566Z,39.72
2023-04-18T15:09:02.585Z,39.70
2023-04-18T15:10:02.547Z,39.79
2023-04-18T15:11:02.576Z,40.26
2023-04-18T15:12:02.597Z,39.88
2023-04-18T15:13:02.640Z,39.75
2023-04-18T15:14:02.609Z,39.89
2023-04-18T15:15:02.657Z,39.84
2023-04-18T15:16:02.662Z,40.09
2023-04-18T15:17:02.632Z,40.44
2023-04-18T15:18:02.769Z,41.04
2023-04-18T15:19:02.707Z,40.86
2023-04-18T15:20:02.710Z,40.68
2023-04-18T15:21:02.800Z,40.71
2023-04-18T15:22:02.820Z,41.11
2023-04-18T15:23:02.853Z,41.08
2023-04-18T15:24:02.856Z,41.28
2023-04-18T15:25:02.888Z,41.02
2023-04-18T15:26:02.897Z,41.12
2023-04-18T15:27:02.942Z,41.46
2023-04-18T15:28:02.997Z,41.62
2023-04-18T15:29:03.044Z,41.49
2023-04-18T15:30:03.072Z,41.49
2023-04-18T15:31:03.142Z,41.60
2023-04-18T15:32:03.232Z,41.80
2023-04-18T15:33:03.283Z,42.06
2023-04-18T15:34:03.277Z,42.25
2023-04-18T15:35:03.272Z,42.82
2023-04-18T15:36:03.349Z,42.65
2023-04-18T15:37:03.425Z,42.72
2023-04-18T15:38:03.493Z,42.57
2023-04-18T15:39:03.496Z,42.74
2023-04-18T15:40:03.517Z,42.94
2023-04-18T15:41:03.549Z,43.00
2023-04-18T15:42:03.508Z,42.82
2023-04-18T15:43:03.573Z,43.12
2023-04-18T15:44:03.925Z,43.15
2023-04-18T15:45:03.547Z,42.92
2023-04-18T15:46:03.573Z,42.56
2023-04-18T15:47:03.609Z,42.79
2023-04-18T15:48:03.636Z,42.67
2023-04-18T15:49:03.631Z,42.81
2023-04-18T15:50:03.688Z,42.99
2023-04-18T15:51:03.672Z,43.21
2023-04-18T15:52:03.674Z,43.01
2023-04-18T15:53:03.792Z,42.93
2023-04-18T15:54:03.717Z,42.76
2023-04-18T15:55:03.769Z,43.14
2023-04-18T15:56:03.716Z,43.39
2023-04-18T15:57:03.739Z,43.30
2023-04-18T15:58:03.716Z,43.62
2023-04-18T15:59:03.711Z,44.07
2023-04-18T16:00:03.755Z,43.89
2023-04-18T16:01:03.749Z,44.39
2023-04-18T16:02:03.918Z,44.78
2023-04-18T16:03:03.827Z,44.75
2023-04-18T16:04:03.852Z,44.71
2023-04-18T16:05:03.809Z,45.22
2023-04-18T16:06:03.834Z,45.31
2023-04-18T16:07:03.859Z,45.58
2023-04-18T16:08:03.943Z,45.66
2023-04-18T16:09:03.919Z,45.30
2023-04-18T16:10:03.939Z,45.84
2023-04-18T16:11:03.951Z,46.13
2023-04-18T16:12:04.013Z,46.04
2023-04-18T16:13:04.059Z,46.29
2023-04-18T16:14:04.122Z,46.35
2023-04-18T16:15:04.136Z,46.52
2023-04-18T16:16:04.166Z,46.53
2023-04-18T16:17:04.240Z,46.70
2023-04-18T16:18:04.302Z,46.74
2023-04-18T16:19:04.345Z,46.72
2023-04-18T16:20:04.419Z,46.46
2023-04-18T16:21:04.430Z,46.54
2023-04-18T16:22:04.489Z,46.64
2023-04-18T16:23:04.520Z,46.70
2023-04-18T16:24:04.512Z,46.90
2023-04-18T16:25:04.603Z,47.26
2023-04-18T16:26:04.623Z,47.13
2023-04-18T16:27:04.732Z,47.24
2023-04-18T16:28:04.750Z,47.17
2023-04-18T16:29:04.800Z,47.36
2023-04-18T16:30:04.868Z,47.51
2023-04-18T16:31:04.951Z,47.35
2023-04-18T16:32:05.022Z,47.49
2023-04-18T16:33:05.086Z,47.43
2023-04-18T16:34:05.089Z,47.56
2023-04-18T16:35:05.262Z,47.39
2023-04-18T16:36:05.166Z,47.62
2023-04-18T16:37:05.222Z,47.93
2023-04-18T16:38:05.275Z,47.64
2023-04-18T16:39:05.306Z,48.12
2023-04-18T16:40:05.311Z,47.72
2023-04-18T16:41:05.319Z,47.57
2023-04-18T16:42:05.422Z,47.29
2023-04-18T16:43:05.429Z,47.19
2023-04-18T16:44:05.558Z,47.74
2023-04-18T16:45:05.547Z,48.03
2023-04-18T16:46:05.622Z,47.75
2023-04-18T16:47:05.766Z,47.94
2023-04-18T16:48:05.832Z,47.77
2023-04-18T16:49:05.802Z,47.99
2023-04-18T16:50:05.812Z,48.20
2023-04-18T16:51:05.926Z,48.07
2023-04-18T16:52:05.996Z,48.34
2023-04-18T16:53:05.989Z,48.85
2023-04-18T16:54:05.957Z,48.78
2023-04-18T16:55:05.964Z,48.78
2023-04-18T16:56:05.961Z,48.97
2023-04-18T16:57:05.954Z,48.85
2023-04-18T16:58:05.943Z,49.09
2023-04-18T16:59:05.968Z,49.30
2023-04-18T17:00:05.981Z,49.36
2023-04-18T17:01:06.032Z,49.31
2023-04-18T17:02:06.065Z,49.15
2023-04-18T17:03:06.149Z,48.91
2023-04-18T17:04:06.060Z,49.07
2023-04-18T17:05:06.067Z,48.95
2023-04-18T17:06:06.074Z,48.78
2023-04-18T17:07:06.111Z,48.52
2023-04-18T17:08:06.152Z,48.84
2023-04-18T17:09:06.261Z,48.50
2023-04-18T17:10:06.416Z,48.44
2023-04-18T17:11:06.251Z,48.33
2023-04-18T17:12:06.270Z,48.59
2023-04-18T17:13:06.344Z,49.10
2023-04-18T17:14:06.370Z,49.39
2023-04-18T17:15:06.381Z,49.78
2023-04-18T17:16:06.399Z,49.78
2023-04-18T17:17:06.395Z,49.46
2023-04-18T17:18:06.465Z,49.54
2023-04-18T17:19:06.396Z,49.19
2023-04-18T17:20:06.416Z,49.29
2023-04-18T17:21:06.409Z,48.94
2023-04-18T17:22:06.477Z,49.13
2023-04-18T17:23:06.598Z,48.96
2023-04-18T17:24:06.610Z,48.60
2023-04-18T17:25:06.583Z,48.78
2023-04-18T17:26:06.622Z,49.18
2023-04-18T17:27:06.564Z,49.01
2023-04-18T17:28:06.643Z,49.19
2023-04-18T17:29:06.738Z,49.18
2023-04-18T17:30:06.691Z,48.97
2023-04-18T17:31:06.690Z,49.28
2023-04-18T17:32:06.718Z,49.11
2023-04-18T17:33:06.786Z,49.29
2023-04-18T17:34:06.798Z,49.29
2023-04-18T17:35:06.837Z,49.19
2023-04-18T17:36:06.893Z,49.39
2023-04-18T17:37:06.897Z,49.62
2023-04-18T17:38:06.902Z,49.51
2023-04-18T17:39:07.001Z,49.62
2023-04-18T17:40:06.875Z,49.72
2023-04-18T17:41:06.925Z,49.70
2023-04-18T17:42:06.953Z,49.60
2023-04-18T17:43:06.976Z,50.11
2023-04-18T17:44:06.947Z,49.97
2023-04-18T17:45:06.998Z,49.93
2023-04-18T17:46:07.924Z,49.69
2023-04-18T17:47:06.985Z,50.04
2023-04-18T17:48:07.057Z,49.80
2023-04-18T17:49:06.982Z,49.38
2023-04-18T17:50:06.951Z,49.07
2023-04-18T17:51:06.988Z,49.27
2023-04-18T17:52:07.031Z,49.60
2023-04-18T17:53:07.101Z,49.33
2023-04-18T17:54:07.102Z,49.39
2023-04-18T17:55:07.034Z,50.12
2023-04-18T17:56:07.062Z,49.55
2023-04-18T17:57:07.125Z,49.36
2023-04-18T17:58:07.242Z,48.98
2023-04-18T17:59:07.348Z,49.42
2023-04-18T18:00:07.453Z,49.64
2023-04-18T18:01:07.432Z,49.65
2023-04-18T18:02:07.497Z,49.73
2023-04-18T18:03:07.579Z,49.66
2023-04-18T18:04:07.528Z,49.70
2023-04-18T18:05:07.438Z,49.31
2023-04-18T18:06:07.491Z,49.13
2023-04-18T18:07:07.509Z,49.62
2023-04-18T18:08:07.486Z,49.42
2023-04-18T18:09:07.485Z,49.39
2023-04-18T18:10:07.534Z,49.57
2023-04-18T18:11:07.561Z,49.98
2023-04-18T18:12:07.543Z,49.52
2023-04-18T18:13:07.579Z,49.88
2023-04-18T18:14:07.535Z,50.13
2023-04-18T18:15:07.589Z,50.37
2023-04-18T18:16:07.670Z,50.64
2023-04-18T18:17:07.776Z,50.44
2023-04-18T18:18:07.643Z,50.50
2023-04-18T18:19:07.626Z,50.73
2023-04-18T18:20:07.622Z,50.67
2023-04-18T18:21:07.676Z,50.23
2023-04-18T18:22:07.661Z,49.84
2023-04-18T18:23:07.727Z,49.78
2023-04-18T18:24:07.730Z,49.58
2023-04-18T18:25:08.390Z,49.11
2023-04-18T18:26:07.694Z,48.96
2023-04-18T18:27:08.393Z,48.85
2023-04-18T18:28:07.803Z,48.92
2023-04-18T18:29:07.758Z,48.59
2023-04-18T18:30:07.745Z,48.54
2023-04-18T18:31:07.784Z,48.52
2023-04-18T18:32:07.784Z,48.41
2023-04-18T18:33:07.811Z,48.49
2023-04-18T18:34:07.793Z,48.95
2023-04-18T18:35:07.751Z,49.60
2023-04-18T18:36:07.804Z,49.45
2023-04-18T18:37:07.817Z,49.40
2023-04-18T18:38:07.823Z,49.82
2023-04-18T18:39:07.834Z,49.58
2023-04-18T18:40:07.849Z,49.77
2023-04-18T18:41:07.832Z,49.53
2023-04-18T18:42:07.806Z,49.43
2023-04-18T18:43:07.856Z,49.50
2023-04-18T18:44:07.834Z,50.19
2023-04-18T18:45:07.868Z,50.05
2023-04-18T18:46:07.904Z,49.80
2023-04-18T18:47:07.878Z,50.09
2023-04-18T18:48:07.921Z,49.99
2023-04-18T18:49:07.857Z,49.76
2023-04-18T18:50:07.892Z,49.77
2023-04-18T18:51:07.898Z,50.08
2023-04-18T18:52:07.951Z,49.58
2023-04-18T18:53:07.964Z,50.19
2023-04-18T18:54:07.949Z,50.28
2023-04-18T18:55:07.994Z,50.65
2023-04-18T18:56:08.018Z,51.09
2023-04-18T18:57:08.125Z,50.80
2023-04-18T18:58:08.094Z,51.15
2023-04-18T18:59:08.080Z,51.10
2023-04-18T19:00:08.102Z,51.45
2023-04-18T19:01:08.120Z,51.12
2023-04-18T19:02:08.230Z,51.15
2023-04-18T19:03:08.416Z,50.72
2023-04-18T19:04:08.489Z,50.69
2023-04-18T19:05:08.236Z,50.31
2023-04-18T19:06:08.262Z,50.27
2023-04-18T19:07:08.333Z,49.90
2023-04-18T19:08:08.339Z,49.73
2023-04-18T19:09:08.341Z,49.37
2023-04-18T19:10:08.370Z,49.33
2023-04-18T19:11:08.393Z,49.68
2023-04-18T19:12:08.412Z,49.40
2023-04-18T19:13:08.464Z,49.85
2023-04-18T19:14:08.460Z,49.70
2023-04-18T19:15:08.517Z,49.73
2023-04-18T19:16:08.539Z,50.17
2023-04-18T19:17:08.539Z,50.01
2023-04-18T19:18:08.939Z,49.97
2023-04-18T19:19:08.684Z,49.61
2023-04-18T19:20:08.660Z,49.69
2023-04-18T19:21:08.651Z,49.42
2023-04-18T19:22:08.740Z,49.64
2023-04-18T19:23:08.738Z,49.62
2023-04-18T19:24:08.779Z,49.36
2023-04-18T19:25:08.792Z,49.36
2023-04-18T19:26:08.787Z,50.05
2023-04-18T19:27:08.876Z,49.95
2023-04-18T19:28:08.823Z,49.80
2023-04-18T19:29:08.876Z,50.16
2023-04-18T19:30:08.843Z,50.89
2023-04-18T19:31:08.972Z,50.72
2023-04-18T19:32:08.852Z,50.90
2023-04-18T19:33:08.943Z,51.09
2023-04-18T19:34:08.888Z,51.23
2023-04-18T19:35:08.941Z,51.31
2023-04-18T19:36:08.960Z,51.26
2023-04-18T19:37:08.999Z,51.08
2023-04-18T19:38:09.046Z,51.13
2023-04-18T19:39:09.057Z,50.92
2023-04-18T19:40:09.050Z,50.56
2023-04-18T19:41:09.097Z,50.18
2023-04-18T19:42:09.137Z,49.98
2023-04-18T19:43:09.183Z,49.91
2023-04-18T19:44:09.202Z,49.62
2023-04-18T19:45:09.237Z,49.91
2023-04-18T19:46:09.285Z,49.82
2023-04-18T19:47:09.271Z,49.93
2023-04-18T19:48:09.277Z,50.26
2023-04-18T19:49:09.340Z,50.05
2023-04-18T19:50:09.457Z,50.39
2023-04-18T19:51:09.384Z,50.40
2023-04-18T19:52:09.434Z,50.46
2023-04-18T19:53:09.403Z,50.48
2023-04-18T19:54:09.456Z,50.19
2023-04-18T19:55:09.526Z,50.04
2023-04-18T19:56:09.552Z,49.77
2023-04-18T19:57:09.586Z,50.01
2023-04-18T19:58:09.577Z,49.97
2023-04-18T19:59:09.618Z,49.80
2023-04-18T20:00:09.672Z,49.56
2023-04-18T20:01:09.760Z,49.45
2023-04-18T20:02:09.786Z,49.61
2023-04-18T20:03:09.920Z,49.56
2023-04-18T20:04:10.031Z,49.64
2023-04-18T20:05:10.281Z,50.10
2023-04-18T20:06:09.914Z,51.25
2023-04-18T20:07:09.980Z,51.06
2023-04-18T20:08:10.029Z,51.40
2023-04-18T20:09:10.074Z,52.19
2023-04-18T20:10:10.102Z,52.80
2023-04-18T20:11:10.185Z,52.34
2023-04-18T20:12:10.233Z,51.79
2023-04-18T20:13:10.312Z,51.80
2023-04-18T20:14:10.404Z,51.66
2023-04-18T20:15:10.417Z,52.16
2023-04-18T20:16:10.502Z,52.17
2023-04-18T20:17:10.564Z,52.44
2023-04-18T20:18:10.670Z,52.12
2023-04-18T20:19:12.614Z,52.02
2023-04-18T20:20:10.724Z,51.75
2023-04-18T20:21:10.834Z,52.45
2023-04-18T20:22:10.877Z,52.29
2023-04-18T20:23:10.920Z,51.85
2023-04-18T20:24:10.997Z,52.36
2023-04-18T20:25:11.038Z,51.74
2023-04-18T20:26:11.064Z,51.79
2023-04-18T20:27:11.165Z,51.93
2023-04-18T20:28:11.196Z,51.85
2023-04-18T20:29:11.272Z,51.62
2023-04-18T20:30:11.313Z,51.48
2023-04-18T20:31:11.390Z,51.34
2023-04-18T20:32:11.438Z,51.83
2023-04-18T20:33:11.510Z,51.93
2023-04-18T20:34:11.582Z,52.19
2023-04-18T20:35:11.534Z,51.89
2023-04-18T20:36:11.544Z,51.62
2023-04-18T20:37:11.512Z,51.32
2023-04-18T20:38:11.543Z,51.16
2023-04-18T20:39:11.579Z,51.01
2023-04-18T20:40:11.529Z,50.97
2023-04-18T20:41:11.516Z,50.60
2023-04-18T20:42:11.559Z,50.79
2023-04-18T20:43:11.538Z,50.84
2023-04-18T20:44:11.569Z,50.65
2023-04-18T20:45:11.548Z,50.62
2023-04-18T20:46:11.574Z,50.65
2023-04-18T20:47:13.248Z,50.76
2023-04-18T20:48:11.563Z,50.41
2023-04-18T20:49:11.590Z,50.32
2023-04-18T20:50:11.554Z,50.12
2023-04-18T20:51:11.523Z,50.32
2023-04-18T20:52:11.524Z,50.17
2023-04-18T20:53:11.542Z,50.30
2023-04-18T20:54:11.549Z,50.20
2023-04-18T20:55:11.511Z,50.35
2023-04-18T20:56:11.508Z,50.36
2023-04-18T20:57:11.486Z,50.78
2023-04-18T20:58:11.494Z,51.10
2023-04-18T20:59:11.461Z,51.54
2023-04-18T21:00:11.480Z,51.52
2023-04-18T21:01:11.518Z,51.72
2023-04-18T21:02:11.606Z,51.94
2023-04-18T21:03:11.555Z,51.92
2023-04-18T21:04:11.718Z,51.86
2023-04-18T21:05:11.429Z,51.60
2023-04-18T21:06:11.436Z,51.41
2023-04-18T21:07:11.417Z,51.37
2023-04-18T21:08:11.449Z,51.23
2023-04-18T21:09:11.441Z,50.98
2023-04-18T21:10:11.394Z,50.82
2023-04-18T21:11:11.415Z,50.68
2023-04-18T21:12:11.419Z,50.82
2023-04-18T21:13:11.442Z,51.17
2023-04-18T21:14:11.434Z,51.65
2023-04-18T21:15:11.369Z,51.77
2023-04-18T21:16:11.426Z,51.42
2023-04-18T21:17:11.353Z,51.19
2023-04-18T21:18:11.360Z,51.02
2023-04-18T21:19:11.366Z,51.23
2023-04-18T21:20:11.332Z,51.20
2023-04-18T21:21:11.380Z,51.25
2023-04-18T21:22:11.340Z,51.57
2023-04-18T21:23:11.319Z,52.27
2023-04-18T21:24:11.328Z,51.98
2023-04-18T21:25:11.347Z,51.67
2023-04-18T21:26:11.330Z,51.51
2023-04-18T21:27:11.327Z,52.11
2023-04-18T21:28:11.289Z,51.77
2023-04-18T21:29:11.276Z,51.98
2023-04-18T21:30:11.279Z,51.63
2023-04-18T21:31:11.311Z,51.70
2023-04-18T21:32:11.279Z,52.05
2023-04-18T21:33:11.299Z,51.65
2023-04-18T21:34:11.236Z,51.48
2023-04-18T21:35:11.266Z,51.28
2023-04-18T21:36:11.266Z,51.41
2023-04-18T21:37:11.245Z,51.32
2023-04-18T21:38:11.220Z,51.12
2023-04-18T21:39:11.245Z,51.20
2023-04-18T21:40:11.252Z,51.27
2023-04-18T21:41:11.258Z,51.17
2023-04-18T21:42:11.225Z,50.93
2023-04-18T21:43:11.174Z,50.79
2023-04-18T21:44:11.216Z,50.71
2023-04-18T21:45:11.182Z,50.64
2023-04-18T21:46:11.255Z,50.55
2023-04-18T21:47:11.173Z,50.47
2023-04-18T21:48:11.151Z,50.40
2023-04-18T21:49:11.173Z,50.44
2023-04-18T21:50:11.160Z,50.40
2023-04-18T21:51:11.184Z,50.39
2023-04-18T21:52:11.149Z,50.65
2023-04-18T21:53:11.112Z,50.63
2023-04-18T21:54:11.135Z,50.80
2023-04-18T21:55:11.111Z,50.69
2023-04-18T21:56:11.098Z,50.56
2023-04-18T21:57:11.147Z,50.63
2023-04-18T21:58:11.240Z,50.52
2023-04-18T21:59:11.231Z,50.51
2023-04-18T22:00:11.294Z,50.49
2023-04-18T22:01:11.431Z,50.46
2023-04-18T22:02:11.522Z,50.33
2023-04-18T22:03:11.626Z,50.44
2023-04-18T22:04:11.668Z,50.41
2023-04-18T22:05:11.614Z,50.29
2023-04-18T22:06:11.687Z,50.27
2023-04-18T22:07:11.678Z,50.23
2023-04-18T22:08:11.732Z,50.20
2023-04-18T22:09:11.800Z,50.14
2023-04-18T22:10:11.890Z,50.11
2023-04-18T22:11:11.958Z,49.97
2023-04-18T22:12:12.032Z,50.29
2023-04-18T22:13:12.066Z,50.26
2023-04-18T22:14:12.192Z,50.21
2023-04-18T22:15:12.196Z,50.46
2023-04-18T22:16:12.246Z,50.36
2023-04-18T22:17:12.292Z,50.23
2023-04-18T22:18:12.418Z,50.26
2023-04-18T22:19:12.436Z,50.21
2023-04-18T22:20:12.458Z,50.26
2023-04-18T22:21:12.486Z,50.11
2023-04-18T22:22:12.600Z,50.09
2023-04-18T22:23:12.639Z,49.97
2023-04-18T22:24:12.828Z,49.97
2023-04-18T22:25:12.765Z,49.93
2023-04-18T22:26:12.829Z,49.89
2023-04-18T22:27:12.887Z,49.84
2023-04-18T22:28:12.922Z,49.87
2023-04-18T22:29:13.004Z,49.95
2023-04-18T22:30:13.007Z,49.93
2023-04-18T22:31:13.112Z,49.96
2023-04-18T22:32:13.192Z,49.87
2023-04-18T22:33:13.241Z,49.83
2023-04-18T22:34:13.518Z,49.96
2023-04-18T22:35:13.347Z,50.20
2023-04-18T22:36:13.421Z,50.02
2023-04-18T22:37:13.462Z,50.06
2023-04-18T22:38:13.544Z,50.11
2023-04-18T22:39:13.606Z,50.13
2023-04-18T22:40:13.622Z,50.26
2023-04-18T22:41:13.696Z,50.52
2023-04-18T22:42:13.688Z,50.37
2023-04-18T22:43:13.698Z,50.31
2023-04-18T22:44:13.892Z,50.30
2023-04-18T22:45:13.789Z,50.22
2023-04-18T22:46:13.818Z,50.22
2023-04-18T22:47:13.901Z,50.33
2023-04-18T22:48:13.944Z,50.25
2023-04-18T22:49:14.035Z,50.19
2023-04-18T22:50:14.018Z,50.46
2023-04-18T22:51:14.073Z,50.33
2023-04-18T22:52:14.179Z,50.38
2023-04-18T22:53:14.215Z,50.22
2023-04-18T22:54:14.505Z,50.20
2023-04-18T22:55:14.262Z,50.22
2023-04-18T22:56:14.310Z,50.27
2023-04-18T22:57:14.318Z,50.25
2023-04-18T22:58:14.313Z,50.22
2023-04-18T22:59:14.367Z,50.28
2023-04-18T23:00:14.353Z,50.20
2023-04-18T23:01:14.397Z,50.33
2023-04-18T23:02:14.583Z,50.30
2023-04-18T23:03:14.507Z,50.19
2023-04-18T23:04:14.780Z,50.18
2023-04-18T23:05:14.361Z,50.28
2023-04-18T23:06:14.374Z,50.29
2023-04-18T23:07:14.382Z,50.32
2023-04-18T23:08:14.389Z,50.33
2023-04-18T23:09:14.401Z,50.34
2023-04-18T23:10:14.418Z,50.50
2023-04-18T23:11:14.436Z,50.41
2023-04-18T23:12:14.454Z,50.37
2023-04-18T23:13:14.437Z,50.31
2023-04-18T23:14:14.695Z,50.39
2023-04-18T23:15:14.471Z,50.46
2023-04-18T23:16:14.564Z,50.44
2023-04-18T23:17:14.515Z,50.43
2023-04-18T23:18:14.565Z,50.44
2023-04-18T23:19:14.646Z,50.46
2023-04-18T23:20:14.597Z,50.58
2023-04-18T23:21:14.630Z,50.65
2023-04-18T23:22:14.639Z,50.57
2023-04-18T23:23:14.660Z,50.56
2023-04-18T23:24:15.039Z,50.63
2023-04-18T23:25:14.623Z,50.61
2023-04-18T23:26:14.645Z,50.68
2023-04-18T23:27:14.694Z,50.64
2023-04-18T23:28:14.753Z,50.92
2023-04-18T23:29:14.702Z,50.96
2023-04-18T23:30:14.749Z,50.83